Strathmore, CA

9:47 PM PDT on September 23, 2014 (GMT -0700)
Plainview | Change Station
CLOSE
Current Station
Personal Weather Station
Location: Strathmore, CA
Elevation: 354 ft
Nearby Weather Stations

Elev 354 ft 36.14 °N, 119.14 °W | Updated 27 seconds ago

Clear
Clear
70.0 °F
Feels Like 70.0 °F
N
0.9
Wind Variable Wind from SE
Gusts 2.0 mph

Today
High -- | Low -- °F
--% Chance of Precip.
Yesterday
High -- | Low -- °F
Precip. -- in
6:45 AM 6:51 PM
Waning Crescent, 0% visible
Pressure 29.90 in
Visibility 10.0 miles
Clouds Clear
Dew Point 59 °F
Humidity 69%
Rainfall 0.00 in
Snow Depth 0 in , 0 in , 0 in
UV 0.0 out of 12
Pollen 6.00 out of 12
PM2.5 Good
Flu Activity Not available.
METAR KPTV 240435Z 14007KT 10SM CLR 22/12 A2990 RMK AO1

More Conditions Fewer Conditions

Pressure 29.90 in
Visibility 10.0 miles
Clouds Clear
Dew Point 59 °F
Humidity 69%
Rainfall 0.00 in
Snow Depth 0 in , 0 in , 0 in
UV 0.0 out of 12
Pollen 6.00 out of 12
PM2.5 Good
Flu Activity Not available.
METAR KPTV 240435Z 14007KT 10SM CLR 22/12 A2990 RMK AO1

More Conditions Fewer Conditions

10-Day Weather Forecast

Almanac

Astronomy

Sep. 23, 2014 Rise Set
Actual Time 6:45 AM PDT 6:51 PM PDT
Civil Twilight 6:19 AM PDT 7:17 PM PDT
Nautical Twilight 5:49 AM PDT 7:46 PM PDT
Astronomical Twilight 5:19 AM PDT 8:17 PM PDT
Moon 6:14 AM PDT (9/23) 6:33 PM PDT (9/23)
Length of Visible Light 12h 57m
Length of Day
12h 06m
Tomorrow will be 2m 18s shorter.
Waning Crescent, 0% of the Moon is Illuminated
Sep 24
Waning Crescent
Sep 24
New
Oct 1
First Quarter
Oct 8
Full
Oct 15
Last Quarter

Yesterday's Extremes

State Highs State Lows

Community

WunderPhotos

Upload Photos

1,755,891 photos uploaded!

WunderBlogs® & News

Nearby

Air Quality

  Air Quality AQ Index Pollutant
Yesterday Good
OZONE
Yesterday Good
PM2.5
Current Good
PM2.5
Tuesday Moderate
PM2.5
Wednesday Moderate
OZONE
Thursday Moderate
OZONE
Friday Good
OZONE
Saturday Good
OZONE
Sunday Good
OZONE

Snow Depth

Station Depth Elevation
Burnside Lake 0 in 8139 ft
Spratt Creek 0 in 6200 ft
Tahoe City Cross 0 in 6750 ft
Rubicon #2 0 in 7500 ft
Monitor Pass 0 in 8350 ft

Earthquake Activity

City Distance Mag. Time & Date
No recent earthquake activity has been reported nearby.
Minimum magnitude displayed is 2.5.

Coastal Water Temperatures

Place Temperature
No Stations Reporting

Nearby Weather Stations